Time;durP1;ratioP1;P1;durP2;ratioP2;P2;SDS_P1;SDS_P2;PMS_P1;PMS_P2;Temp;Humidity;BMP_temperature;BMP_pressure;BME280_temperature;BME280_humidity;BME280_pressure;Samples;Min_cycle;Max_cycle;Signal;HPM_P1;HPM_P2
2022/01/11 00:00:08;;;;;;;348.77;97.53;;;;;;;6.68;100.00;99041.78;341289;29;881;-72
2022/01/11 00:00:20;;;;;;;347.55;98.13;;;;;;;6.69;100.00;99043.47;341151;28;1453;-72
2022/01/11 00:00:35;;;;;;;346.65;96.65;;;;;;;6.69;100.00;99043.47;341260;29;944;-72
2022/01/11 00:00:45;;;;;;;346.95;96.80;;;;;;;6.71;100.00;99052.06;341236;29;927;-72
2022/01/11 00:00:57;;;;;;;348.57;98.97;;;;;;;6.71;100.00;99049.47;338416;29;842;-72
2022/01/11 00:01:09;;;;;;;347.02;98.55;;;;;;;6.70;100.00;99044.31;339300;29;1776;-72
2022/01/11 00:01:19;;;;;;;347.58;97.40;;;;;;;6.70;100.00;99058.16;339969;29;1051;-73
2022/01/11 00:01:30;;;;;;;346.35;96.90;;;;;;;6.68;100.00;99047.81;342498;28;1203;-72
2022/01/11 00:01:42;;;;;;;346.33;96.13;;;;;;;6.65;100.00;99047.94;342716;28;802;-72
2022/01/11 00:01:53;;;;;;;344.20;94.60;;;;;;;6.63;100.00;99048.88;340143;28;1808;-72
2022/01/11 00:02:04;;;;;;;346.10;93.70;;;;;;;6.64;100.00;99051.44;341667;28;1442;-72
2022/01/11 00:02:16;;;;;;;346.67;94.13;;;;;;;6.70;100.00;99050.38;342454;28;1506;-72
2022/01/11 00:02:27;;;;;;;349.13;95.97;;;;;;;6.74;100.00;99046.75;338672;29;1294;-72
2022/01/11 00:02:42;;;;;;;349.00;97.28;;;;;;;6.71;100.00;99049.47;338549;29;854;-72
2022/01/11 00:02:53;;;;;;;348.63;97.55;;;;;;;6.74;100.00;99051.13;337355;29;910;-72
2022/01/11 00:03:05;;;;;;;349.92;98.15;;;;;;;6.73;100.00;99047.66;341265;29;816;-72
2022/01/11 00:03:17;;;;;;;348.40;96.20;;;;;;;6.72;100.00;99051.16;339928;29;985;-72
2022/01/11 00:03:27;;;;;;;347.15;96.47;;;;;;;6.71;100.00;99052.06;341293;29;857;-72
2022/01/11 00:03:40;;;;;;;348.97;96.33;;;;;;;6.69;100.00;99053.88;341229;29;1167;-72
2022/01/11 00:03:50;;;;;;;349.38;97.55;;;;;;;6.66;100.00;99041.81;339895;29;892;-72
2022/01/11 00:04:00;;;;;;;349.67;98.00;;;;;;;6.70;100.00;99049.53;341191;29;1173;-72
2022/01/11 00:04:13;;;;;;;346.83;97.20;;;;;;;6.71;100.00;99052.06;339930;29;1332;-72
2022/01/11 00:04:28;;;;;;;345.48;96.43;;;;;;;6.70;100.00;99054.72;338982;29;1661;-72
2022/01/11 00:04:39;;;;;;;344.38;96.32;;;;;;;6.68;100.00;99053.03;342075;28;1408;-72
2022/01/11 00:04:49;;;;;;;345.85;97.15;;;;;;;6.68;100.00;99055.63;340034;28;1344;-73
2022/01/11 00:05:00;;;;;;;346.73;98.37;;;;;;;6.72;100.00;99053.78;341344;29;849;-73
2022/01/11 00:05:36;;;;;;;353.23;95.78;;;;;;;6.64;100.00;99047.97;342566;28;931;-72
2022/01/11 00:06:34;;;;;;;344.98;95.18;;;;;;;6.66;100.00;99053.97;339914;29;912;-72
2022/01/11 00:06:48;;;;;;;344.58;95.47;;;;;;;6.71;100.00;99057.28;341164;29;842;-72
2022/01/11 00:07:00;;;;;;;348.17;98.28;;;;;;;6.75;100.00;99053.66;341252;29;1375;-72
2022/01/11 00:07:14;;;;;;;350.00;98.70;;;;;;;6.77;100.00;99051.00;341991;29;895;-72
2022/01/11 00:07:24;;;;;;;346.73;96.05;;;;;;;6.69;100.00;99053.88;342546;28;935;-72
2022/01/11 00:07:35;;;;;;;343.90;95.27;;;;;;;6.65;100.00;99063.53;339877;28;1047;-72
2022/01/11 00:07:46;;;;;;;342.80;95.53;;;;;;;6.61;100.00;99061.06;341245;28;1881;-72
2022/01/11 00:07:57;;;;;;;344.42;96.80;;;;;;;6.59;100.00;99052.47;341318;29;859;-72
2022/01/11 00:08:10;;;;;;;345.73;98.03;;;;;;;6.61;100.00;99046.31;342591;28;843;-72
2022/01/11 00:08:29;;;;;;;347.17;97.93;;;;;;;6.66;100.00;99061.78;340941;28;1514;-72
2022/01/11 00:08:41;;;;;;;347.42;98.25;;;;;;;6.69;100.00;99059.06;341126;29;1016;-73
2022/01/11 00:08:54;;;;;;;346.83;98.28;;;;;;;6.69;100.00;99048.66;342618;28;1446;-73
2022/01/11 00:09:18;;;;;;;344.52;96.18;;;;;;;6.69;100.00;99053.88;341198;28;1367;-73
2022/01/11 00:09:38;;;;;;;346.73;94.45;;;;;;;6.67;100.00;99056.53;342363;28;2034;-72
2022/01/11 00:09:50;;;;;;;346.83;97.03;;;;;;;6.68;100.00;99057.38;342649;28;994;-72
2022/01/11 00:10:05;;;;;;;346.88;99.18;;;;;;;6.66;100.00;99059.19;345789;28;973;-72
2022/01/11 00:10:26;;;;;;;345.88;96.88;;;;;;;6.65;100.00;99052.28;341304;29;1089;-72
2022/01/11 00:10:48;;;;;;;347.33;95.70;;;;;;;6.62;100.00;99058.44;342972;28;1005;-72
2022/01/11 00:11:04;;;;;;;348.42;96.55;;;;;;;6.62;100.00;99066.22;341218;29;944;-72
2022/01/11 00:11:14;;;;;;;349.35;96.40;;;;;;;6.64;100.00;99071.38;342620;28;1056;-72
2022/01/11 00:11:25;;;;;;;349.95;96.97;;;;;;;6.61;100.00;99061.06;342682;28;1029;-72
2022/01/11 00:11:35;;;;;;;344.87;94.53;;;;;;;6.56;100.00;99050.84;341280;29;953;-72
2022/01/11 00:11:46;;;;;;;344.35;94.03;;;;;;;6.59;100.00;99058.53;341346;29;1020;-73
2022/01/11 00:11:57;;;;;;;342.98;95.03;;;;;;;6.62;100.00;99062.78;342561;28;931;-72
2022/01/11 00:12:08;;;;;;;343.75;95.57;;;;;;;6.63;100.00;99048.88;341223;28;1224;-72
2022/01/11 00:12:19;;;;;;;343.80;94.53;;;;;;;6.62;100.00;99063.63;338590;28;1640;-73
2022/01/11 00:12:29;;;;;;;345.63;93.22;;;;;;;6.63;100.00;99059.28;338663;29;1037;-72
2022/01/11 00:12:40;;;;;;;346.03;92.20;;;;;;;6.62;100.00;99062.78;341878;29;860;-72
2022/01/11 00:12:50;;;;;;;346.87;93.00;;;;;;;6.63;100.00;99054.94;342769;28;1817;-72
2022/01/11 00:13:00;;;;;;;345.75;94.60;;;;;;;6.63;100.00;99056.69;341122;28;1354;-71
2022/01/11 00:13:11;;;;;;;347.80;98.40;;;;;;;6.66;100.00;99067.81;342581;28;1316;-72
2022/01/11 00:13:21;;;;;;;348.83;98.22;;;;;;;6.67;100.00;99063.47;341334;29;921;-74
2022/01/11 00:13:34;;;;;;;348.93;97.83;;;;;;;6.66;100.00;99066.97;338645;29;996;-72
2022/01/11 00:13:44;;;;;;;347.92;95.85;;;;;;;6.66;100.00;99056.56;341262;29;1117;-72
2022/01/11 00:13:54;;;;;;;346.23;94.87;;;;;;;6.65;100.00;99058.31;343991;28;979;-72
2022/01/11 00:14:05;;;;;;;346.60;94.72;;;;;;;6.66;100.00;99059.19;345265;28;803;-72
2022/01/11 00:14:15;;;;;;;346.13;95.00;;;;;;;6.64;100.00;99063.56;341209;28;1252;-72
2022/01/11 00:14:26;;;;;;;346.75;95.82;;;;;;;6.65;100.00;99065.28;340340;29;1832;-72
2022/01/11 00:14:36;;;;;;;346.17;94.77;;;;;;;6.67;100.00;99063.47;338447;28;1522;-73
2022/01/11 00:14:46;;;;;;;346.05;94.97;;;;;;;6.68;100.00;99063.41;341086;29;1983;-71
2022/01/11 00:14:57;;;;;;;345.27;94.47;;;;;;;6.70;100.00;99060.78;341252;28;1380;-71
2022/01/11 00:15:08;;;;;;;344.67;94.75;;;;;;;6.69;100.00;99053.88;338612;29;1337;-71
2022/01/11 00:15:18;;;;;;;345.40;94.77;;;;;;;6.67;100.00;99061.72;341891;28;942;-71
2022/01/11 00:15:29;;;;;;;346.70;95.97;;;;;;;6.66;100.00;99070.44;342606;28;1115;-72
2022/01/11 00:15:39;;;;;;;346.48;97.55;;;;;;;6.66;100.00;99065.22;341121;28;1198;-72
2022/01/11 00:15:49;;;;;;;345.33;97.23;;;;;;;6.64;100.00;99066.19;341312;29;1281;-72
2022/01/11 00:16:00;;;;;;;345.87;99.60;;;;;;;6.64;100.00;99071.38;339935;29;862;-72
2022/01/11 00:16:13;;;;;;;346.65;98.50;;;;;;;6.66;100.00;99074.78;339738;29;1945;-72
2022/01/11 00:16:23;;;;;;;346.40;96.10;;;;;;;6.70;100.00;99065.97;341199;29;1401;-72
2022/01/11 00:16:34;;;;;;;345.70;93.40;;;;;;;6.72;100.00;99073.72;341206;29;849;-72
2022/01/11 00:16:45;;;;;;;344.77;94.22;;;;;;;6.74;100.00;99066.72;343784;28;1518;-73
2022/01/11 00:16:55;;;;;;;344.20;94.95;;;;;;;6.71;100.00;99078.06;343935;28;841;-72
2022/01/11 00:17:06;;;;;;;344.35;95.93;;;;;;;6.67;100.00;99066.06;343935;28;886;-72
2022/01/11 00:17:16;;;;;;;345.17;96.23;;;;;;;6.69;100.00;99074.69;343816;28;1255;-72
2022/01/11 00:17:27;;;;;;;346.35;97.68;;;;;;;6.67;100.00;99066.06;342546;28;1053;-72
2022/01/11 00:17:37;;;;;;;347.33;96.97;;;;;;;6.67;100.00;99068.69;342561;28;1325;-72
2022/01/11 00:17:47;;;;;;;347.10;95.93;;;;;;;6.70;100.00;99065.97;339909;29;1383;-72
2022/01/11 00:17:58;;;;;;;348.00;95.67;;;;;;;6.72;100.00;99074.56;338570;29;1553;-72
2022/01/11 00:18:08;;;;;;;347.67;95.90;;;;;;;6.71;100.00;99072.88;341827;29;1284;-72
2022/01/11 00:18:18;;;;;;;349.33;96.50;;;;;;;6.71;100.00;99077.22;341234;29;974;-72
2022/01/11 00:18:29;;;;;;;349.00;97.00;;;;;;;6.67;100.00;99074.72;342746;28;1323;-73
2022/01/11 00:18:39;;;;;;;348.77;97.53;;;;;;;6.69;100.00;99072.06;342379;28;1190;-72
2022/01/11 00:18:50;;;;;;;347.13;96.60;;;;;;;6.71;100.00;99072.88;341242;28;1462;-72
2022/01/11 00:19:05;;;;;;;346.03;95.07;;;;;;;6.73;100.00;99072.81;342513;28;1039;-72
2022/01/11 00:19:16;;;;;;;345.77;95.40;;;;;;;6.72;100.00;99069.38;341155;28;1320;-72
2022/01/11 00:19:28;;;;;;;345.20;96.47;;;;;;;6.73;100.00;99071.06;338546;29;1563;-72
2022/01/11 00:19:38;;;;;;;345.73;98.25;;;;;;;6.72;100.00;99068.53;341258;29;935;-72
2022/01/11 00:19:49;;;;;;;346.23;97.28;;;;;;;6.74;100.00;99069.31;343920;28;861;-72
2022/01/11 00:19:59;;;;;;;346.67;96.78;;;;;;;6.75;100.00;99071.88;342515;28;1737;-72
2022/01/11 00:20:13;;;;;;;346.60;96.43;;;;;;;6.74;100.00;99067.56;339848;28;1224;-72
2022/01/11 00:20:26;;;;;;;344.90;96.68;;;;;;;6.71;100.00;99078.06;339934;29;920;-72
2022/01/11 00:20:38;;;;;;;344.42;95.13;;;;;;;6.72;100.00;99073.72;341057;28;1347;-72
2022/01/11 00:20:48;;;;;;;346.02;95.97;;;;;;;6.74;100.00;99077.13;341984;29;948;-72
2022/01/11 00:20:59;;;;;;;348.07;95.60;;;;;;;6.76;100.00;99076.16;339809;29;1505;-72
2022/01/11 00:21:10;;;;;;;347.88;96.95;;;;;;;6.75;100.00;99079.66;340138;29;948;-72
2022/01/11 00:21:21;;;;;;;347.35;97.30;;;;;;;6.74;100.00;99077.97;342507;28;1283;-72
2022/01/11 00:21:38;;;;;;;346.45;96.82;;;;;;;6.76;100.00;99076.16;343776;28;1413;-72
2022/01/11 00:21:49;;;;;;;346.70;95.68;;;;;;;6.76;100.00;99081.38;341212;29;1407;-72
2022/01/11 00:22:03;;;;;;;345.48;95.13;;;;;;;6.70;100.00;99068.56;339735;29;1496;-73
2022/01/11 00:22:18;;;;;;;345.80;96.78;;;;;;;6.69;100.00;99066.88;341302;29;948;-72
2022/01/11 00:22:32;;;;;;;347.80;97.63;;;;;;;6.69;100.00;99074.69;339900;29;961;-72
2022/01/11 00:24:29;;;;;;;346.25;97.22;;;;;;;6.78;100.00;99074.38;338745;29;964;-71
2022/01/11 00:24:40;;;;;;;345.63;97.25;;;;;;;6.83;100.00;99077.66;339581;28;1279;-72
2022/01/11 00:24:50;;;;;;;346.43;97.17;;;;;;;6.84;100.00;99074.16;339909;29;1189;-72
2022/01/11 00:25:01;;;;;;;347.73;99.03;;;;;;;6.86;100.00;99074.97;341179;28;1385;-72
2022/01/11 00:25:11;;;;;;;347.92;99.45;;;;;;;6.88;100.00;99075.75;341186;29;816;-72
2022/01/11 00:25:22;;;;;;;347.77;100.23;;;;;;;6.89;100.00;99074.84;341197;29;1189;-71
2022/01/11 00:25:34;;;;;;;346.60;98.70;;;;;;;6.92;100.00;99077.34;341341;28;1277;-71
2022/01/11 00:25:46;;;;;;;345.15;96.55;;;;;;;6.87;100.00;99079.25;338820;29;856;-72
2022/01/11 00:25:56;;;;;;;344.26;97.40;;;;;;;6.84;100.00;99081.97;341266;29;949;-72
2022/01/11 00:26:07;;;;;;;344.77;96.73;;;;;;;6.77;100.00;99075.25;341489;28;1755;-71
2022/01/11 00:26:17;;;;;;;345.25;95.60;;;;;;;6.74;100.00;99075.38;344739;28;1264;-71
2022/01/11 00:26:27;;;;;;;346.40;94.13;;;;;;;6.72;100.00;99073.72;338901;29;1193;-71
2022/01/11 00:26:38;;;;;;;347.15;95.63;;;;;;;6.73;100.00;99076.28;339865;29;955;-72
2022/01/11 00:26:48;;;;;;;348.03;97.40;;;;;;;6.73;100.00;99081.47;341326;29;854;-72
2022/01/11 00:27:06;;;;;;;349.40;101.00;;;;;;;6.76;100.00;99068.38;342583;28;932;-71
2022/01/11 00:27:18;;;;;;;348.02;100.28;;;;;;;6.77;100.00;99072.66;342596;28;937;-73
2022/01/11 00:27:28;;;;;;;346.33;98.72;;;;;;;6.79;100.00;99081.25;341360;29;920;-73
2022/01/11 00:27:38;;;;;;;345.48;98.40;;;;;;;6.72;100.00;99079.78;343953;28;1219;-73
2022/01/11 00:27:49;;;;;;;345.93;98.77;;;;;;;6.73;100.00;99088.41;341173;29;1583;-73
2022/01/11 00:27:59;;;;;;;345.52;97.75;;;;;;;6.73;100.00;99081.47;341161;29;1408;-73
2022/01/11 00:28:11;;;;;;;346.30;98.50;;;;;;;6.72;100.00;99077.16;339975;29;1290;-72
2022/01/11 00:28:22;;;;;;;345.98;96.97;;;;;;;6.68;100.00;99081.63;342439;28;1399;-72
2022/01/11 00:28:32;;;;;;;346.00;95.85;;;;;;;6.66;100.00;99074.78;341285;29;1033;-73
2022/01/11 00:28:43;;;;;;;344.63;95.63;;;;;;;6.65;100.00;99078.28;341195;28;1012;-72
2022/01/11 00:28:53;;;;;;;345.55;96.85;;;;;;;6.65;100.00;99078.28;340564;28;1305;-72
2022/01/11 00:29:03;;;;;;;345.87;96.60;;;;;;;6.64;100.00;99085.22;343072;28;1315;-72
2022/01/11 00:29:14;;;;;;;348.45;97.25;;;;;;;6.65;100.00;99080.88;343952;28;1345;-72
2022/01/11 00:29:24;;;;;;;349.57;95.83;;;;;;;6.68;100.00;99088.56;342563;28;1003;-72
2022/01/11 00:29:39;;;;;;;349.30;95.97;;;;;;;6.67;100.00;99085.13;341192;28;1402;-72
2022/01/11 00:29:52;;;;;;;346.50;96.43;;;;;;;6.70;100.00;99085.91;341214;29;873;-72
2022/01/11 00:30:07;;;;;;;346.88;98.48;;;;;;;6.71;100.00;99083.28;342531;28;972;-72
2022/01/11 00:30:18;;;;;;;347.90;98.18;;;;;;;6.68;100.00;99080.78;339762;29;911;-73
2022/01/11 00:30:32;;;;;;;348.37;97.57;;;;;;;6.69;100.00;99082.47;338564;29;869;-73
2022/01/11 00:30:44;;;;;;;347.98;97.18;;;;;;;6.72;100.00;99087.56;338435;29;1224;-73
2022/01/11 00:30:55;;;;;;;347.50;96.53;;;;;;;6.73;100.00;99086.66;342244;28;1574;-73
2022/01/11 00:31:07;;;;;;;346.77;95.63;;;;;;;6.72;100.00;99089.31;342372;28;1701;-73
2022/01/11 00:31:18;;;;;;;345.88;95.60;;;;;;;6.68;100.00;99091.19;342464;28;1597;-71
2022/01/11 00:31:29;;;;;;;343.06;93.80;;;;;;;6.63;100.00;99086.13;339796;29;933;-72
2022/01/11 00:31:40;;;;;;;343.83;94.80;;;;;;;6.62;100.00;99080.97;340483;29;999;-72
2022/01/11 00:31:51;;;;;;;345.20;96.85;;;;;;;6.63;100.00;99082.69;340322;29;1305;-72
2022/01/11 00:32:07;;;;;;;348.25;99.30;;;;;;;6.65;100.00;99088.69;341138;29;922;-72
2022/01/11 00:32:27;;;;;;;346.08;97.20;;;;;;;6.61;100.00;99089.69;341168;29;1235;-72
2022/01/11 00:32:44;;;;;;;346.25;96.10;;;;;;;6.61;100.00;99092.28;339645;28;1180;-72
2022/01/11 00:32:56;;;;;;;350.30;97.22;;;;;;;6.63;100.00;99096.53;338917;29;981;-72
2022/01/11 00:33:10;;;;;;;349.05;97.25;;;;;;;6.61;100.00;99093.13;339643;29;1673;-72
2022/01/11 00:33:33;;;;;;;348.05;97.88;;;;;;;6.64;100.00;99085.22;339841;29;961;-72
2022/01/11 00:33:46;;;;;;;346.40;96.05;;;;;;;6.68;100.00;99093.78;343671;28;1086;-72
2022/01/11 00:33:56;;;;;;;345.42;93.18;;;;;;;6.66;100.00;99087.78;343801;28;1181;-72
2022/01/11 00:34:08;;;;;;;345.47;93.80;;;;;;;6.66;100.00;99095.56;343865;28;854;-72
2022/01/11 00:34:20;;;;;;;345.95;94.85;;;;;;;6.67;100.00;99094.69;340109;28;1331;-72
2022/01/11 00:34:40;;;;;;;344.75;95.85;;;;;;;6.70;100.00;99086.78;341223;29;1550;-73
2022/01/11 00:34:52;;;;;;;345.58;94.82;;;;;;;6.73;100.00;99096.22;343688;28;1926;-72
2022/01/11 00:35:04;;;;;;;347.08;95.35;;;;;;;6.76;100.00;99096.97;342483;28;861;-72
2022/01/11 00:35:16;;;;;;;347.15;95.57;;;;;;;6.79;100.00;99091.66;338443;29;1458;-72
2022/01/11 00:35:38;;;;;;;345.45;95.57;;;;;;;6.80;100.00;99088.16;339728;29;926;-72
2022/01/11 00:35:59;;;;;;;345.75;95.60;;;;;;;6.83;100.00;99090.66;341119;29;956;-72
2022/01/11 00:36:11;;;;;;;348.98;100.47;;;;;;;6.81;100.00;99091.63;340620;29;929;-72
2022/01/11 00:36:21;;;;;;;348.63;101.13;;;;;;;6.81;100.00;99094.22;340997;28;1545;-72
2022/01/11 00:36:41;;;;;;;347.93;99.40;;;;;;;6.79;100.00;99086.47;341159;29;935;-72
2022/01/11 00:36:52;;;;;;;346.40;96.03;;;;;;;6.71;100.00;99092.81;339749;29;881;-73
2022/01/11 00:37:02;;;;;;;347.67;97.50;;;;;;;6.69;100.00;99090.28;340353;29;877;-72
2022/01/11 00:37:14;;;;;;;347.02;97.13;;;;;;;6.65;100.00;99088.69;341108;29;966;-72
2022/01/11 00:37:26;;;;;;;348.38;97.38;;;;;;;6.68;100.00;99096.38;342476;28;932;-72
2022/01/11 00:37:36;;;;;;;348.30;95.00;;;;;;;6.67;100.00;99081.66;341015;28;1381;-72
2022/01/11 00:37:46;;;;;;;349.63;96.83;;;;;;;6.65;100.00;99094.72;339836;29;968;-72
2022/01/11 00:37:57;;;;;;;349.92;96.43;;;;;;;6.65;100.00;99096.47;342655;28;2151;-72
2022/01/11 00:38:08;;;;;;;348.70;98.37;;;;;;;6.66;100.00;99093.81;342446;28;1175;-72
2022/01/11 00:38:19;;;;;;;347.45;96.72;;;;;;;6.69;100.00;99098.06;341013;29;1000;-72
2022/01/11 00:38:32;;;;;;;347.63;98.10;;;;;;;6.73;100.00;99097.06;339725;29;870;-72
2022/01/11 00:38:42;;;;;;;347.83;95.88;;;;;;;6.76;100.00;99094.38;339643;29;998;-72
2022/01/11 00:38:52;;;;;;;347.60;94.93;;;;;;;6.73;100.00;99091.88;342430;28;1272;-72
2022/01/11 00:39:03;;;;;;;348.03;95.13;;;;;;;6.73;100.00;99094.47;344991;28;1378;-71
2022/01/11 00:39:13;;;;;;;348.73;97.60;;;;;;;6.74;100.00;99095.31;342511;28;909;-71
2022/01/11 00:39:24;;;;;;;348.60;97.63;;;;;;;6.72;100.00;99095.38;342314;28;1316;-72
2022/01/11 00:39:34;;;;;;;349.00;98.95;;;;;;;6.71;100.00;99092.81;341167;28;1541;-72
2022/01/11 00:39:49;;;;;;;349.53;97.60;;;;;;;6.67;100.00;99097.28;343499;28;1432;-72
2022/01/11 00:40:00;;;;;;;350.10;96.43;;;;;;;6.67;100.00;99087.72;342392;28;1303;-71
2022/01/11 00:40:11;;;;;;;347.10;95.85;;;;;;;6.69;100.00;99100.66;341138;28;1308;-71
2022/01/11 00:40:22;;;;;;;346.98;94.90;;;;;;;6.64;100.00;99097.38;339782;29;874;-71
2022/01/11 00:40:32;;;;;;;346.50;97.37;;;;;;;6.63;100.00;99095.69;342422;28;1219;-71
2022/01/11 00:40:50;;;;;;;348.13;97.68;;;;;;;6.62;100.00;99101.78;341067;29;1252;-71
2022/01/11 00:41:02;;;;;;;349.90;97.32;;;;;;;6.65;100.00;99101.66;341103;29;998;-71
2022/01/11 00:41:14;;;;;;;350.52;98.10;;;;;;;6.67;100.00;99094.69;341046;29;1817;-72
2022/01/11 00:41:24;;;;;;;349.42;99.30;;;;;;;6.66;100.00;99096.44;337202;29;921;-72
2022/01/11 00:41:37;;;;;;;346.40;97.63;;;;;;;6.64;100.00;99102.56;338488;29;1830;-72
2022/01/11 00:41:48;;;;;;;345.30;96.90;;;;;;;6.61;100.00;99094.88;339852;29;873;-72
2022/01/11 00:41:58;;;;;;;347.65;97.22;;;;;;;6.62;100.00;99100.03;339770;29;842;-72
2022/01/11 00:42:09;;;;;;;347.03;96.60;;;;;;;6.60;100.00;99095.78;338503;29;1455;-72
2022/01/11 00:42:20;;;;;;;348.50;97.53;;;;;;;6.58;100.00;99100.16;343630;28;1854;-72
2022/01/11 00:42:30;;;;;;;347.83;97.15;;;;;;;6.59;100.00;99094.06;343024;28;1192;-72
2022/01/11 00:42:40;;;;;;;348.47;99.10;;;;;;;6.62;100.00;99104.38;339687;29;1286;-72
2022/01/11 00:42:52;;;;;;;347.33;97.43;;;;;;;6.62;100.00;99102.63;342296;28;1922;-72
2022/01/11 00:43:04;;;;;;;347.85;96.95;;;;;;;6.67;100.00;99099.88;343798;28;885;-72
2022/01/11 00:43:19;;;;;;;349.67;98.18;;;;;;;6.69;100.00;99098.06;341024;28;1411;-72
2022/01/11 00:43:29;;;;;;;349.50;97.40;;;;;;;6.70;100.00;99102.38;342414;28;1275;-72
2022/01/11 00:43:40;;;;;;;348.02;96.13;;;;;;;6.72;100.00;99104.91;339667;28;1342;-72
2022/01/11 00:43:50;;;;;;;346.73;96.05;;;;;;;6.67;100.00;99095.53;339858;29;905;-72
2022/01/11 00:44:01;;;;;;;345.13;95.67;;;;;;;6.66;100.00;99100.78;341167;29;837;-72
2022/01/11 00:44:11;;;;;;;344.23;95.07;;;;;;;6.65;100.00;99102.53;341056;28;1333;-72
2022/01/11 00:44:23;;;;;;;346.50;97.23;;;;;;;6.65;100.00;99101.66;341156;29;904;-72
2022/01/11 00:44:33;;;;;;;345.80;95.90;;;;;;;6.61;100.00;99103.53;339743;29;1864;-72
2022/01/11 00:44:44;;;;;;;345.77;95.77;;;;;;;6.62;100.00;99099.19;342252;28;1455;-72
2022/01/11 00:44:54;;;;;;;344.55;96.00;;;;;;;6.62;100.00;99104.38;341290;28;1189;-72
2022/01/11 00:45:06;;;;;;;345.10;96.47;;;;;;;6.65;100.00;99104.28;341364;29;1019;-72
2022/01/11 00:45:16;;;;;;;345.15;97.10;;;;;;;6.66;100.00;99108.56;341847;28;1470;-72
2022/01/11 00:45:27;;;;;;;345.77;95.32;;;;;;;6.61;100.00;99100.06;342512;28;1379;-72
2022/01/11 00:45:37;;;;;;;345.93;94.23;;;;;;;6.58;100.00;99107.97;342568;28;919;-72
2022/01/11 00:45:48;;;;;;;345.35;93.63;;;;;;;6.56;100.00;99096.78;343756;28;1418;-72
2022/01/11 00:45:59;;;;;;;344.42;95.57;;;;;;;6.57;100.00;99111.47;341102;29;851;-72
2022/01/11 00:46:10;;;;;;;344.80;96.07;;;;;;;6.59;100.00;99105.31;341258;29;846;-72
2022/01/11 00:46:20;;;;;;;345.27;95.85;;;;;;;6.60;100.00;99103.56;342430;28;1326;-72
2022/01/11 00:46:31;;;;;;;345.80;95.93;;;;;;;6.62;100.00;99100.03;342579;28;936;-72
2022/01/11 00:46:41;;;;;;;346.42;97.43;;;;;;;6.67;100.00;99107.66;343725;28;1068;-72
2022/01/11 00:46:52;;;;;;;346.13;98.07;;;;;;;6.67;100.00;99103.31;342581;28;1391;-72
2022/01/11 00:47:02;;;;;;;345.50;96.80;;;;;;;6.69;100.00;99100.66;339957;29;897;-72
2022/01/11 00:47:13;;;;;;;346.27;96.57;;;;;;;6.67;100.00;99102.47;338539;29;1289;-72
2022/01/11 00:47:23;;;;;;;345.88;95.40;;;;;;;6.67;100.00;99105.06;339774;29;1537;-72
2022/01/11 00:47:33;;;;;;;345.47;94.63;;;;;;;6.68;100.00;99109.38;342835;28;916;-72
2022/01/11 00:47:44;;;;;;;345.10;95.32;;;;;;;6.69;100.00;99111.06;342572;28;1283;-72
2022/01/11 00:47:54;;;;;;;347.33;98.23;;;;;;;6.72;100.00;99110.13;341247;29;1469;-72
2022/01/11 00:48:05;;;;;;;348.23;99.00;;;;;;;6.66;100.00;99105.97;338478;29;1204;-72
2022/01/11 00:48:15;;;;;;;348.63;98.87;;;;;;;6.63;100.00;99103.47;342471;28;1439;-72
2022/01/11 00:48:26;;;;;;;346.83;97.70;;;;;;;6.64;100.00;99107.78;341130;28;1247;-72
2022/01/11 00:48:39;;;;;;;346.87;97.30;;;;;;;6.61;100.00;99100.06;338483;29;1062;-72
2022/01/11 00:48:50;;;;;;;346.08;94.75;;;;;;;6.63;100.00;99106.91;341291;29;987;-72
2022/01/11 00:49:00;;;;;;;347.13;95.73;;;;;;;6.65;100.00;99106.88;341138;28;1176;-73
2022/01/11 00:49:10;;;;;;;347.48;96.90;;;;;;;6.64;100.00;99107.78;339868;29;1315;-72
2022/01/11 00:49:21;;;;;;;344.90;96.30;;;;;;;6.66;100.00;99105.97;339873;29;1507;-72
2022/01/11 00:49:33;;;;;;;345.50;96.90;;;;;;;6.69;100.00;99108.47;339907;29;1621;-72
2022/01/11 00:49:44;;;;;;;347.20;99.43;;;;;;;6.70;100.00;99107.56;341246;28;889;-72
2022/01/11 00:49:55;;;;;;;349.17;101.10;;;;;;;6.70;100.00;99112.78;341233;29;920;-72
2022/01/11 00:50:06;;;;;;;347.23;99.40;;;;;;;6.63;100.00;99100.88;341133;28;1335;-72
2022/01/11 00:50:18;;;;;;;347.45;96.82;;;;;;;6.60;100.00;99101.81;344246;28;916;-72
2022/01/11 00:50:28;;;;;;;345.35;96.35;;;;;;;6.56;100.00;99104.56;343850;28;861;-72
2022/01/11 00:50:39;;;;;;;346.70;97.40;;;;;;;6.55;100.00;99105.47;345098;28;841;-72
2022/01/11 00:50:49;;;;;;;346.37;98.63;;;;;;;6.56;100.00;99099.38;343889;28;887;-72
2022/01/11 00:51:00;;;;;;;347.25;98.40;;;;;;;6.60;100.00;99106.16;341110;28;1205;-72
2022/01/11 00:51:11;;;;;;;347.00;97.05;;;;;;;6.59;100.00;99105.31;341073;29;1861;-72
2022/01/11 00:51:21;;;;;;;347.75;97.22;;;;;;;6.60;100.00;99113.97;342487;28;1311;-72
2022/01/11 00:51:32;;;;;;;347.73;97.93;;;;;;;6.57;100.00;99114.91;343896;28;1090;-72
2022/01/11 00:51:42;;;;;;;345.48;95.78;;;;;;;6.56;100.00;99118.41;341142;28;1291;-72
2022/01/11 00:51:52;;;;;;;344.47;94.67;;;;;;;6.51;100.00;99101.28;341210;28;1440;-72
2022/01/11 00:52:03;;;;;;;342.80;93.90;;;;;;;6.49;100.00;99110.91;341045;28;1812;-72
2022/01/11 00:52:14;;;;;;;342.87;95.03;;;;;;;6.48;100.00;99106.59;342376;28;1316;-72
2022/01/11 00:52:25;;;;;;;342.98;95.90;;;;;;;6.49;100.00;99118.69;343895;28;956;-72
2022/01/11 00:52:35;;;;;;;343.97;94.87;;;;;;;6.44;100.00;99107.59;343867;28;1213;-72
2022/01/11 00:52:46;;;;;;;344.03;94.73;;;;;;;6.45;100.00;99111.91;343745;28;1381;-72
2022/01/11 00:52:56;;;;;;;343.97;94.37;;;;;;;6.44;100.00;99115.41;341278;28;1558;-72
2022/01/11 00:53:07;;;;;;;345.23;95.57;;;;;;;6.43;100.00;99114.53;338130;29;1173;-72
2022/01/11 00:53:18;;;;;;;346.88;96.32;;;;;;;6.42;100.00;99112.84;337388;29;1207;-72
2022/01/11 00:53:28;;;;;;;348.42;95.00;;;;;;;6.44;100.00;99107.59;339767;29;992;-72
2022/01/11 00:53:40;;;;;;;348.70;95.27;;;;;;;6.48;100.00;99112.66;343804;28;1336;-72
2022/01/11 00:53:51;;;;;;;348.48;97.15;;;;;;;6.50;100.00;99110.00;339872;29;902;-72
2022/01/11 00:54:01;;;;;;;348.42;97.70;;;;;;;6.52;100.00;99108.16;341117;29;1431;-72
2022/01/11 00:54:12;;;;;;;347.67;97.03;;;;;;;6.51;100.00;99109.06;341211;29;939;-72
2022/01/11 00:54:22;;;;;;;348.00;96.25;;;;;;;6.51;100.00;99117.72;341245;29;921;-72
2022/01/11 00:54:33;;;;;;;346.83;95.43;;;;;;;6.51;100.00;99114.28;341480;28;1843;-72
2022/01/11 00:54:43;;;;;;;345.50;94.18;;;;;;;6.47;100.00;99107.50;340993;29;1312;-72
2022/01/11 00:54:53;;;;;;;344.70;93.13;;;;;;;6.43;100.00;99113.69;342363;28;1915;-72
2022/01/11 00:55:04;;;;;;;344.60;93.72;;;;;;;6.40;100.00;99112.03;342588;28;853;-73
2022/01/11 00:55:15;;;;;;;347.37;95.27;;;;;;;6.41;100.00;99115.50;345221;28;972;-73
2022/01/11 00:55:25;;;;;;;349.53;96.97;;;;;;;6.42;100.00;99114.59;343942;28;1021;-73
2022/01/11 00:55:36;;;;;;;350.13;96.88;;;;;;;6.44;100.00;99110.19;342806;28;873;-73
2022/01/11 00:55:47;;;;;;;350.63;96.30;;;;;;;6.45;100.00;99110.16;339928;29;866;-72
2022/01/11 00:55:57;;;;;;;349.60;94.28;;;;;;;6.48;100.00;99110.06;338692;29;914;-72
2022/01/11 00:56:08;;;;;;;350.02;95.13;;;;;;;6.48;100.00;99106.59;340545;29;1092;-72
2022/01/11 00:56:18;;;;;;;348.15;95.05;;;;;;;6.53;100.00;99121.13;341053;28;1905;-72
2022/01/11 00:56:29;;;;;;;348.17;96.13;;;;;;;6.53;100.00;99115.06;342406;28;1339;-72
2022/01/11 00:56:39;;;;;;;348.37;95.83;;;;;;;6.50;100.00;99118.63;339802;29;925;-72
2022/01/11 00:56:49;;;;;;;348.33;96.63;;;;;;;6.47;100.00;99113.53;339963;29;933;-72
2022/01/11 00:57:00;;;;;;;347.37;96.23;;;;;;;6.43;100.00;99114.53;339903;29;917;-72
2022/01/11 00:57:10;;;;;;;346.70;95.57;;;;;;;6.42;100.00;99114.59;341215;29;947;-72
2022/01/11 00:57:21;;;;;;;346.57;95.03;;;;;;;6.43;100.00;99118.88;341226;29;946;-72